sensor_id;sensor_type;location;lat;lon;timestamp;P1;durP1;ratioP1;P2;durP2;ratioP2
64615;SDS011;51027;42.162;24.754;2022-12-29T00:00:00;20.20;;;7.13;;
64615;SDS011;51027;42.162;24.754;2022-12-29T00:02:25;17.52;;;7.20;;
64615;SDS011;51027;42.162;24.754;2022-12-29T00:04:51;20.95;;;7.47;;
64615;SDS011;51027;42.162;24.754;2022-12-29T00:07:17;19.83;;;7.80;;
64615;SDS011;51027;42.162;24.754;2022-12-29T00:09:43;22.35;;;7.70;;
64615;SDS011;51027;42.162;24.754;2022-12-29T00:12:08;21.00;;;7.93;;
64615;SDS011;51027;42.162;24.754;2022-12-29T00:14:34;21.20;;;8.25;;
64615;SDS011;51027;42.162;24.754;2022-12-29T00:17:18;18.60;;;7.00;;
64615;SDS011;51027;42.162;24.754;2022-12-29T00:19:43;22.63;;;7.72;;
64615;SDS011;51027;42.162;24.754;2022-12-29T00:22:27;19.77;;;7.95;;
64615;SDS011;51027;42.162;24.754;2022-12-29T00:25:12;21.02;;;8.13;;
64615;SDS011;51027;42.162;24.754;2022-12-29T00:27:56;20.80;;;7.68;;
64615;SDS011;51027;42.162;24.754;2022-12-29T00:30:41;18.77;;;7.20;;
64615;SDS011;51027;42.162;24.754;2022-12-29T00:33:26;19.67;;;6.82;;
64615;SDS011;51027;42.162;24.754;2022-12-29T00:36:15;19.08;;;7.50;;
64615;SDS011;51027;42.162;24.754;2022-12-29T00:38:51;19.25;;;7.30;;
64615;SDS011;51027;42.162;24.754;2022-12-29T00:41:39;19.60;;;7.80;;
64615;SDS011;51027;42.162;24.754;2022-12-29T00:44:23;20.98;;;7.47;;
64615;SDS011;51027;42.162;24.754;2022-12-29T00:46:48;20.05;;;8.10;;
64615;SDS011;51027;42.162;24.754;2022-12-29T00:49:14;23.05;;;8.70;;
64615;SDS011;51027;42.162;24.754;2022-12-29T00:51:55;20.05;;;8.95;;
64615;SDS011;51027;42.162;24.754;2022-12-29T00:54:25;19.75;;;9.00;;
64615;SDS011;51027;42.162;24.754;2022-12-29T00:56:52;19.20;;;7.53;;
64615;SDS011;51027;42.162;24.754;2022-12-29T00:59:17;19.77;;;8.23;;
64615;SDS011;51027;42.162;24.754;2022-12-29T01:01:43;20.08;;;8.02;;
64615;SDS011;51027;42.162;24.754;2022-12-29T01:04:10;20.67;;;8.55;;
64615;SDS011;51027;42.162;24.754;2022-12-29T01:06:37;22.67;;;9.02;;
64615;SDS011;51027;42.162;24.754;2022-12-29T01:09:03;24.20;;;9.50;;
64615;SDS011;51027;42.162;24.754;2022-12-29T01:11:48;26.75;;;10.50;;
64615;SDS011;51027;42.162;24.754;2022-12-29T01:14:14;24.00;;;10.27;;
64615;SDS011;51027;42.162;24.754;2022-12-29T01:16:40;25.13;;;10.82;;
64615;SDS011;51027;42.162;24.754;2022-12-29T01:19:06;23.77;;;10.13;;
64615;SDS011;51027;42.162;24.754;2022-12-29T01:21:32;24.50;;;11.32;;
64615;SDS011;51027;42.162;24.754;2022-12-29T01:23:57;24.55;;;10.75;;
64615;SDS011;51027;42.162;24.754;2022-12-29T01:26:23;25.92;;;10.70;;
64615;SDS011;51027;42.162;24.754;2022-12-29T01:28:48;23.83;;;10.02;;
64615;SDS011;51027;42.162;24.754;2022-12-29T01:31:14;22.30;;;9.70;;
64615;SDS011;51027;42.162;24.754;2022-12-29T01:33:40;22.25;;;9.43;;
64615;SDS011;51027;42.162;24.754;2022-12-29T01:36:07;23.02;;;8.85;;
64615;SDS011;51027;42.162;24.754;2022-12-29T01:38:35;15.68;;;6.90;;
64615;SDS011;51027;42.162;24.754;2022-12-29T01:41:01;25.70;;;9.85;;
64615;SDS011;51027;42.162;24.754;2022-12-29T01:43:40;24.10;;;9.30;;
64615;SDS011;51027;42.162;24.754;2022-12-29T01:46:18;20.77;;;8.90;;
64615;SDS011;51027;42.162;24.754;2022-12-29T01:48:46;21.13;;;9.15;;
64615;SDS011;51027;42.162;24.754;2022-12-29T01:51:13;19.45;;;9.23;;
64615;SDS011;51027;42.162;24.754;2022-12-29T01:53:41;22.48;;;9.45;;
64615;SDS011;51027;42.162;24.754;2022-12-29T01:56:08;21.70;;;9.50;;
64615;SDS011;51027;42.162;24.754;2022-12-29T01:58:39;23.83;;;8.82;;
64615;SDS011;51027;42.162;24.754;2022-12-29T02:01:10;23.20;;;8.98;;
64615;SDS011;51027;42.162;24.754;2022-12-29T02:03:36;22.35;;;9.60;;
64615;SDS011;51027;42.162;24.754;2022-12-29T02:08:37;19.80;;;8.70;;
64615;SDS011;51027;42.162;24.754;2022-12-29T02:11:03;19.08;;;8.27;;
64615;SDS011;51027;42.162;24.754;2022-12-29T02:13:30;24.35;;;9.13;;
64615;SDS011;51027;42.162;24.754;2022-12-29T02:16:00;24.02;;;8.77;;
64615;SDS011;51027;42.162;24.754;2022-12-29T02:27:17;21.50;;;9.38;;
64615;SDS011;51027;42.162;24.754;2022-12-29T02:30:08;21.38;;;8.45;;
64615;SDS011;51027;42.162;24.754;2022-12-29T02:35:41;25.45;;;9.15;;
64615;SDS011;51027;42.162;24.754;2022-12-29T02:40:48;19.40;;;8.70;;
64615;SDS011;51027;42.162;24.754;2022-12-29T02:43:39;21.75;;;8.82;;
64615;SDS011;51027;42.162;24.754;2022-12-29T02:46:12;20.42;;;9.30;;
64615;SDS011;51027;42.162;24.754;2022-12-29T02:51:37;20.75;;;9.13;;
64615;SDS011;51027;42.162;24.754;2022-12-29T02:54:09;20.58;;;8.32;;
64615;SDS011;51027;42.162;24.754;2022-12-29T02:57:01;22.48;;;9.43;;
64615;SDS011;51027;42.162;24.754;2022-12-29T02:59:26;21.52;;;9.65;;
64615;SDS011;51027;42.162;24.754;2022-12-29T03:10:20;23.10;;;9.32;;
64615;SDS011;51027;42.162;24.754;2022-12-29T03:12:52;23.77;;;10.00;;
64615;SDS011;51027;42.162;24.754;2022-12-29T03:15:44;23.50;;;10.35;;
64615;SDS011;51027;42.162;24.754;2022-12-29T03:21:13;26.13;;;10.95;;
64615;SDS011;51027;42.162;24.754;2022-12-29T03:23:43;24.40;;;11.75;;
64615;SDS011;51027;42.162;24.754;2022-12-29T03:26:12;27.65;;;12.57;;
64615;SDS011;51027;42.162;24.754;2022-12-29T03:28:44;28.98;;;13.05;;
64615;SDS011;51027;42.162;24.754;2022-12-29T03:31:14;26.25;;;12.00;;
64615;SDS011;51027;42.162;24.754;2022-12-29T03:33:40;30.05;;;14.52;;
64615;SDS011;51027;42.162;24.754;2022-12-29T03:36:09;28.33;;;12.93;;
64615;SDS011;51027;42.162;24.754;2022-12-29T03:38:43;29.05;;;12.80;;
64615;SDS011;51027;42.162;24.754;2022-12-29T03:41:17;27.00;;;14.63;;
64615;SDS011;51027;42.162;24.754;2022-12-29T03:43:47;26.75;;;14.07;;
64615;SDS011;51027;42.162;24.754;2022-12-29T03:46:12;29.98;;;13.57;;
64615;SDS011;51027;42.162;24.754;2022-12-29T03:48:38;31.63;;;13.95;;
64615;SDS011;51027;42.162;24.754;2022-12-29T03:51:03;32.50;;;14.40;;
64615;SDS011;51027;42.162;24.754;2022-12-29T03:53:29;29.40;;;13.77;;
64615;SDS011;51027;42.162;24.754;2022-12-29T03:55:54;30.02;;;13.77;;
64615;SDS011;51027;42.162;24.754;2022-12-29T03:58:20;29.27;;;13.77;;
64615;SDS011;51027;42.162;24.754;2022-12-29T04:00:45;31.67;;;14.93;;
64615;SDS011;51027;42.162;24.754;2022-12-29T04:03:10;27.05;;;13.00;;
64615;SDS011;51027;42.162;24.754;2022-12-29T04:05:36;28.92;;;14.45;;
64615;SDS011;51027;42.162;24.754;2022-12-29T04:08:01;26.63;;;12.63;;
64615;SDS011;51027;42.162;24.754;2022-12-29T04:10:26;28.45;;;12.90;;
64615;SDS011;51027;42.162;24.754;2022-12-29T04:12:52;30.45;;;13.75;;
64615;SDS011;51027;42.162;24.754;2022-12-29T04:15:17;29.08;;;12.95;;
64615;SDS011;51027;42.162;24.754;2022-12-29T04:17:43;28.00;;;13.88;;
64615;SDS011;51027;42.162;24.754;2022-12-29T04:20:08;30.58;;;13.05;;
64615;SDS011;51027;42.162;24.754;2022-12-29T04:23:02;27.98;;;12.57;;
64615;SDS011;51027;42.162;24.754;2022-12-29T04:25:30;29.00;;;12.60;;
64615;SDS011;51027;42.162;24.754;2022-12-29T04:27:56;30.05;;;12.55;;
64615;SDS011;51027;42.162;24.754;2022-12-29T04:30:21;26.27;;;12.45;;
64615;SDS011;51027;42.162;24.754;2022-12-29T04:32:47;31.52;;;13.02;;
64615;SDS011;51027;42.162;24.754;2022-12-29T04:35:12;26.40;;;12.18;;
64615;SDS011;51027;42.162;24.754;2022-12-29T04:37:38;33.03;;;13.07;;
64615;SDS011;51027;42.162;24.754;2022-12-29T04:40:03;29.77;;;13.48;;
64615;SDS011;51027;42.162;24.754;2022-12-29T04:42:29;26.42;;;12.75;;
64615;SDS011;51027;42.162;24.754;2022-12-29T04:44:54;29.48;;;12.25;;
64615;SDS011;51027;42.162;24.754;2022-12-29T04:47:20;27.58;;;12.35;;
64615;SDS011;51027;42.162;24.754;2022-12-29T04:49:45;29.63;;;13.88;;
64615;SDS011;51027;42.162;24.754;2022-12-29T04:52:10;27.80;;;13.07;;
64615;SDS011;51027;42.162;24.754;2022-12-29T04:54:36;28.38;;;13.32;;
64615;SDS011;51027;42.162;24.754;2022-12-29T04:57:01;30.27;;;14.30;;
64615;SDS011;51027;42.162;24.754;2022-12-29T04:59:27;31.83;;;15.40;;
64615;SDS011;51027;42.162;24.754;2022-12-29T05:01:52;39.40;;;17.38;;
64615;SDS011;51027;42.162;24.754;2022-12-29T05:04:17;32.50;;;15.85;;
64615;SDS011;51027;42.162;24.754;2022-12-29T05:06:43;32.33;;;15.73;;
64615;SDS011;51027;42.162;24.754;2022-12-29T05:09:08;29.67;;;14.93;;
64615;SDS011;51027;42.162;24.754;2022-12-29T05:11:34;31.67;;;14.15;;
64615;SDS011;51027;42.162;24.754;2022-12-29T05:13:59;32.22;;;14.93;;
64615;SDS011;51027;42.162;24.754;2022-12-29T05:16:25;28.90;;;14.45;;
64615;SDS011;51027;42.162;24.754;2022-12-29T05:18:50;37.75;;;17.75;;
64615;SDS011;51027;42.162;24.754;2022-12-29T05:21:15;46.45;;;18.33;;
64615;SDS011;51027;42.162;24.754;2022-12-29T05:23:41;33.97;;;16.48;;
64615;SDS011;51027;42.162;24.754;2022-12-29T05:26:06;31.02;;;14.10;;
64615;SDS011;51027;42.162;24.754;2022-12-29T05:28:31;27.48;;;14.00;;
64615;SDS011;51027;42.162;24.754;2022-12-29T05:30:57;30.98;;;15.38;;
64615;SDS011;51027;42.162;24.754;2022-12-29T05:33:23;27.80;;;14.13;;
64615;SDS011;51027;42.162;24.754;2022-12-29T05:35:48;30.35;;;14.18;;
64615;SDS011;51027;42.162;24.754;2022-12-29T05:38:13;27.60;;;13.50;;
64615;SDS011;51027;42.162;24.754;2022-12-29T05:40:39;31.08;;;14.65;;
64615;SDS011;51027;42.162;24.754;2022-12-29T05:43:04;44.25;;;22.67;;
64615;SDS011;51027;42.162;24.754;2022-12-29T05:45:30;45.95;;;21.65;;
64615;SDS011;51027;42.162;24.754;2022-12-29T05:47:55;48.50;;;21.27;;
64615;SDS011;51027;42.162;24.754;2022-12-29T05:50:21;41.30;;;19.98;;
64615;SDS011;51027;42.162;24.754;2022-12-29T05:52:46;41.70;;;19.17;;
64615;SDS011;51027;42.162;24.754;2022-12-29T05:55:11;39.75;;;16.95;;
64615;SDS011;51027;42.162;24.754;2022-12-29T05:57:37;32.03;;;15.43;;
64615;SDS011;51027;42.162;24.754;2022-12-29T06:00:03;43.25;;;20.88;;
64615;SDS011;51027;42.162;24.754;2022-12-29T06:02:30;44.60;;;22.05;;
64615;SDS011;51027;42.162;24.754;2022-12-29T06:04:55;46.88;;;24.70;;
64615;SDS011;51027;42.162;24.754;2022-12-29T06:07:21;52.38;;;23.73;;
64615;SDS011;51027;42.162;24.754;2022-12-29T06:09:46;45.13;;;24.85;;
64615;SDS011;51027;42.162;24.754;2022-12-29T06:12:12;39.63;;;20.67;;
64615;SDS011;51027;42.162;24.754;2022-12-29T06:14:37;42.38;;;21.13;;
64615;SDS011;51027;42.162;24.754;2022-12-29T06:17:03;41.85;;;22.90;;
64615;SDS011;51027;42.162;24.754;2022-12-29T06:19:28;44.08;;;22.00;;
64615;SDS011;51027;42.162;24.754;2022-12-29T06:21:53;41.42;;;20.05;;
64615;SDS011;51027;42.162;24.754;2022-12-29T06:24:19;44.03;;;22.33;;
64615;SDS011;51027;42.162;24.754;2022-12-29T06:26:45;37.40;;;19.65;;
64615;SDS011;51027;42.162;24.754;2022-12-29T06:29:11;43.42;;;20.08;;
64615;SDS011;51027;42.162;24.754;2022-12-29T06:31:38;36.50;;;18.52;;
64615;SDS011;51027;42.162;24.754;2022-12-29T06:34:03;38.35;;;17.63;;
64615;SDS011;51027;42.162;24.754;2022-12-29T06:36:29;45.00;;;21.23;;
64615;SDS011;51027;42.162;24.754;2022-12-29T06:38:54;41.25;;;19.67;;
64615;SDS011;51027;42.162;24.754;2022-12-29T06:41:20;39.40;;;19.25;;
64615;SDS011;51027;42.162;24.754;2022-12-29T06:43:45;42.70;;;20.63;;
64615;SDS011;51027;42.162;24.754;2022-12-29T06:46:11;40.88;;;21.38;;
64615;SDS011;51027;42.162;24.754;2022-12-29T06:48:36;44.85;;;23.35;;
64615;SDS011;51027;42.162;24.754;2022-12-29T06:51:02;53.45;;;28.80;;
64615;SDS011;51027;42.162;24.754;2022-12-29T06:53:28;58.08;;;31.27;;
64615;SDS011;51027;42.162;24.754;2022-12-29T06:55:53;61.38;;;30.38;;
64615;SDS011;51027;42.162;24.754;2022-12-29T06:58:19;55.00;;;28.92;;
64615;SDS011;51027;42.162;24.754;2022-12-29T07:00:45;52.03;;;27.17;;
64615;SDS011;51027;42.162;24.754;2022-12-29T07:03:10;44.33;;;22.65;;
64615;SDS011;51027;42.162;24.754;2022-12-29T07:05:35;37.90;;;19.92;;
64615;SDS011;51027;42.162;24.754;2022-12-29T07:08:01;39.88;;;16.70;;
64615;SDS011;51027;42.162;24.754;2022-12-29T07:10:26;37.33;;;19.00;;
64615;SDS011;51027;42.162;24.754;2022-12-29T07:12:52;34.22;;;17.42;;
64615;SDS011;51027;42.162;24.754;2022-12-29T07:15:17;35.60;;;16.50;;
64615;SDS011;51027;42.162;24.754;2022-12-29T07:17:43;40.67;;;18.23;;
64615;SDS011;51027;42.162;24.754;2022-12-29T07:20:09;38.55;;;19.90;;
64615;SDS011;51027;42.162;24.754;2022-12-29T07:22:34;37.00;;;18.63;;
64615;SDS011;51027;42.162;24.754;2022-12-29T07:25:00;37.53;;;19.67;;
64615;SDS011;51027;42.162;24.754;2022-12-29T07:27:25;38.10;;;18.23;;
64615;SDS011;51027;42.162;24.754;2022-12-29T07:29:52;36.28;;;18.58;;
64615;SDS011;51027;42.162;24.754;2022-12-29T07:32:17;37.13;;;19.02;;
64615;SDS011;51027;42.162;24.754;2022-12-29T07:34:42;41.58;;;19.23;;
64615;SDS011;51027;42.162;24.754;2022-12-29T07:37:10;42.42;;;20.00;;
64615;SDS011;51027;42.162;24.754;2022-12-29T07:39:35;35.78;;;20.77;;
64615;SDS011;51027;42.162;24.754;2022-12-29T07:42:01;39.33;;;20.77;;
64615;SDS011;51027;42.162;24.754;2022-12-29T07:44:26;37.00;;;18.77;;
64615;SDS011;51027;42.162;24.754;2022-12-29T07:46:52;41.13;;;20.05;;
64615;SDS011;51027;42.162;24.754;2022-12-29T07:49:17;41.92;;;19.73;;
64615;SDS011;51027;42.162;24.754;2022-12-29T07:51:43;37.60;;;20.25;;
64615;SDS011;51027;42.162;24.754;2022-12-29T07:54:08;33.40;;;17.48;;
64615;SDS011;51027;42.162;24.754;2022-12-29T07:56:34;32.00;;;16.33;;
64615;SDS011;51027;42.162;24.754;2022-12-29T07:58:59;34.20;;;16.35;;
64615;SDS011;51027;42.162;24.754;2022-12-29T08:01:25;34.38;;;16.67;;
64615;SDS011;51027;42.162;24.754;2022-12-29T08:03:50;32.53;;;16.45;;
64615;SDS011;51027;42.162;24.754;2022-12-29T08:06:15;34.50;;;17.40;;
64615;SDS011;51027;42.162;24.754;2022-12-29T08:08:41;26.45;;;12.70;;
64615;SDS011;51027;42.162;24.754;2022-12-29T08:11:06;181.75;;;82.13;;
64615;SDS011;51027;42.162;24.754;2022-12-29T08:13:32;63.67;;;32.38;;
64615;SDS011;51027;42.162;24.754;2022-12-29T08:15:58;39.97;;;20.38;;
64615;SDS011;51027;42.162;24.754;2022-12-29T08:18:23;39.35;;;19.58;;
64615;SDS011;51027;42.162;24.754;2022-12-29T08:20:49;38.58;;;20.67;;
64615;SDS011;51027;42.162;24.754;2022-12-29T08:23:14;35.75;;;18.67;;
64615;SDS011;51027;42.162;24.754;2022-12-29T08:25:43;41.55;;;20.23;;
64615;SDS011;51027;42.162;24.754;2022-12-29T08:28:08;38.88;;;20.40;;
64615;SDS011;51027;42.162;24.754;2022-12-29T08:30:35;46.55;;;20.70;;
64615;SDS011;51027;42.162;24.754;2022-12-29T08:33:01;39.55;;;20.80;;
64615;SDS011;51027;42.162;24.754;2022-12-29T08:35:26;40.22;;;20.48;;
64615;SDS011;51027;42.162;24.754;2022-12-29T08:37:51;38.08;;;19.48;;
64615;SDS011;51027;42.162;24.754;2022-12-29T08:40:17;46.40;;;20.98;;
64615;SDS011;51027;42.162;24.754;2022-12-29T08:42:43;37.30;;;19.10;;
64615;SDS011;51027;42.162;24.754;2022-12-29T08:45:09;36.38;;;19.00;;
64615;SDS011;51027;42.162;24.754;2022-12-29T08:47:34;37.97;;;19.05;;
64615;SDS011;51027;42.162;24.754;2022-12-29T08:50:00;40.55;;;20.17;;
64615;SDS011;51027;42.162;24.754;2022-12-29T08:52:25;35.33;;;18.48;;
64615;SDS011;51027;42.162;24.754;2022-12-29T08:54:51;39.35;;;17.95;;
64615;SDS011;51027;42.162;24.754;2022-12-29T08:57:16;36.63;;;17.55;;
64615;SDS011;51027;42.162;24.754;2022-12-29T08:59:42;32.83;;;18.35;;
64615;SDS011;51027;42.162;24.754;2022-12-29T09:02:10;34.75;;;17.80;;
64615;SDS011;51027;42.162;24.754;2022-12-29T09:04:36;30.98;;;16.98;;
64615;SDS011;51027;42.162;24.754;2022-12-29T09:07:02;38.72;;;18.40;;
64615;SDS011;51027;42.162;24.754;2022-12-29T09:09:27;34.70;;;16.65;;
64615;SDS011;51027;42.162;24.754;2022-12-29T09:11:53;31.55;;;16.15;;
64615;SDS011;51027;42.162;24.754;2022-12-29T09:14:18;36.38;;;17.48;;
64615;SDS011;51027;42.162;24.754;2022-12-29T09:16:44;36.40;;;17.38;;
64615;SDS011;51027;42.162;24.754;2022-12-29T09:19:28;30.10;;;15.00;;
64615;SDS011;51027;42.162;24.754;2022-12-29T09:21:53;34.30;;;17.17;;
64615;SDS011;51027;42.162;24.754;2022-12-29T09:24:18;34.90;;;15.73;;
64615;SDS011;51027;42.162;24.754;2022-12-29T09:26:44;34.55;;;16.83;;
64615;SDS011;51027;42.162;24.754;2022-12-29T09:29:09;32.95;;;17.15;;
64615;SDS011;51027;42.162;24.754;2022-12-29T09:31:35;33.97;;;15.68;;
64615;SDS011;51027;42.162;24.754;2022-12-29T09:34:00;32.40;;;15.90;;
64615;SDS011;51027;42.162;24.754;2022-12-29T09:36:25;33.08;;;16.02;;
64615;SDS011;51027;42.162;24.754;2022-12-29T09:38:52;31.20;;;16.02;;
64615;SDS011;51027;42.162;24.754;2022-12-29T09:41:26;33.53;;;14.95;;
64615;SDS011;51027;42.162;24.754;2022-12-29T09:47:06;29.05;;;14.10;;
64615;SDS011;51027;42.162;24.754;2022-12-29T09:55:10;26.35;;;13.30;;
64615;SDS011;51027;42.162;24.754;2022-12-29T09:57:43;33.13;;;13.90;;
64615;SDS011;51027;42.162;24.754;2022-12-29T10:05:36;27.35;;;12.95;;
64615;SDS011;51027;42.162;24.754;2022-12-29T10:11:14;28.73;;;12.52;;
64615;SDS011;51027;42.162;24.754;2022-12-29T10:22:08;28.20;;;14.32;;
64615;SDS011;51027;42.162;24.754;2022-12-29T10:24:53;28.13;;;13.02;;
64615;SDS011;51027;42.162;24.754;2022-12-29T10:27:20;30.02;;;13.13;;
64615;SDS011;51027;42.162;24.754;2022-12-29T10:29:48;30.48;;;12.70;;
64615;SDS011;51027;42.162;24.754;2022-12-29T10:34:58;27.52;;;13.45;;
64615;SDS011;51027;42.162;24.754;2022-12-29T10:40:40;26.92;;;11.32;;
64615;SDS011;51027;42.162;24.754;2022-12-29T10:42:56;25.50;;;13.05;;
64615;SDS011;51027;42.162;24.754;2022-12-29T10:45:24;26.20;;;13.27;;
64615;SDS011;51027;42.162;24.754;2022-12-29T10:48:00;22.98;;;11.07;;
64615;SDS011;51027;42.162;24.754;2022-12-29T10:50:47;24.50;;;11.23;;
64615;SDS011;51027;42.162;24.754;2022-12-29T10:53:23;23.35;;;11.70;;
64615;SDS011;51027;42.162;24.754;2022-12-29T10:55:52;24.35;;;11.35;;
64615;SDS011;51027;42.162;24.754;2022-12-29T10:58:19;25.95;;;13.15;;
64615;SDS011;51027;42.162;24.754;2022-12-29T11:00:49;26.92;;;11.60;;
64615;SDS011;51027;42.162;24.754;2022-12-29T11:03:22;24.23;;;11.43;;
64615;SDS011;51027;42.162;24.754;2022-12-29T11:11:22;26.02;;;11.93;;
64615;SDS011;51027;42.162;24.754;2022-12-29T11:13:58;20.98;;;10.10;;
64615;SDS011;51027;42.162;24.754;2022-12-29T11:16:28;24.50;;;11.75;;
64615;SDS011;51027;42.162;24.754;2022-12-29T11:18:59;23.73;;;10.57;;
64615;SDS011;51027;42.162;24.754;2022-12-29T11:21:27;23.63;;;9.98;;
64615;SDS011;51027;42.162;24.754;2022-12-29T11:24:18;22.00;;;11.10;;
64615;SDS011;51027;42.162;24.754;2022-12-29T11:26:44;25.33;;;11.07;;
64615;SDS011;51027;42.162;24.754;2022-12-29T11:29:21;26.85;;;11.48;;
64615;SDS011;51027;42.162;24.754;2022-12-29T11:34:16;28.70;;;12.35;;
64615;SDS011;51027;42.162;24.754;2022-12-29T11:36:47;25.65;;;12.30;;
64615;SDS011;51027;42.162;24.754;2022-12-29T11:42:16;27.70;;;12.25;;
64615;SDS011;51027;42.162;24.754;2022-12-29T11:44:48;29.60;;;12.20;;
64615;SDS011;51027;42.162;24.754;2022-12-29T11:47:23;27.65;;;13.40;;
64615;SDS011;51027;42.162;24.754;2022-12-29T11:49:57;25.08;;;12.27;;
64615;SDS011;51027;42.162;24.754;2022-12-29T11:52:27;25.17;;;12.70;;
64615;SDS011;51027;42.162;24.754;2022-12-29T11:54:58;26.08;;;13.05;;
64615;SDS011;51027;42.162;24.754;2022-12-29T11:57:28;26.20;;;12.00;;
64615;SDS011;51027;42.162;24.754;2022-12-29T11:59:57;24.00;;;11.98;;
64615;SDS011;51027;42.162;24.754;2022-12-29T12:08:18;25.58;;;13.15;;
64615;SDS011;51027;42.162;24.754;2022-12-29T12:17:12;28.13;;;14.18;;
64615;SDS011;51027;42.162;24.754;2022-12-29T12:19:46;27.27;;;13.60;;
64615;SDS011;51027;42.162;24.754;2022-12-29T12:25:01;28.50;;;14.23;;
64615;SDS011;51027;42.162;24.754;2022-12-29T12:27:41;30.17;;;14.75;;
64615;SDS011;51027;42.162;24.754;2022-12-29T12:30:23;27.45;;;14.60;;
64615;SDS011;51027;42.162;24.754;2022-12-29T13:13:13;31.30;;;16.25;;
64615;SDS011;51027;42.162;24.754;2022-12-29T13:16:17;36.05;;;15.35;;
64615;SDS011;51027;42.162;24.754;2022-12-29T13:21:37;32.55;;;16.52;;
64615;SDS011;51027;42.162;24.754;2022-12-29T13:30:04;38.10;;;20.25;;
64615;SDS011;51027;42.162;24.754;2022-12-29T13:35:16;35.22;;;19.27;;
64615;SDS011;51027;42.162;24.754;2022-12-29T13:37:58;34.58;;;19.27;;
64615;SDS011;51027;42.162;24.754;2022-12-29T13:40:32;34.47;;;18.90;;
64615;SDS011;51027;42.162;24.754;2022-12-29T13:43:03;33.90;;;18.65;;
64615;SDS011;51027;42.162;24.754;2022-12-29T13:45:30;40.33;;;21.52;;
64615;SDS011;51027;42.162;24.754;2022-12-29T13:48:06;37.90;;;20.87;;
64615;SDS011;51027;42.162;24.754;2022-12-29T13:50:40;35.15;;;18.95;;
64615;SDS011;51027;42.162;24.754;2022-12-29T13:53:19;30.63;;;17.40;;
64615;SDS011;51027;42.162;24.754;2022-12-29T13:56:03;32.35;;;17.17;;
64615;SDS011;51027;42.162;24.754;2022-12-29T14:06:15;30.10;;;15.55;;
64615;SDS011;51027;42.162;24.754;2022-12-29T14:08:45;28.83;;;13.63;;
64615;SDS011;51027;42.162;24.754;2022-12-29T14:11:14;30.48;;;15.00;;
64615;SDS011;51027;42.162;24.754;2022-12-29T14:13:42;30.45;;;15.02;;
64615;SDS011;51027;42.162;24.754;2022-12-29T14:16:27;26.92;;;13.95;;
64615;SDS011;51027;42.162;24.754;2022-12-29T14:18:54;31.75;;;15.02;;
64615;SDS011;51027;42.162;24.754;2022-12-29T14:21:22;26.25;;;13.55;;
64615;SDS011;51027;42.162;24.754;2022-12-29T14:23:57;30.80;;;13.68;;
64615;SDS011;51027;42.162;24.754;2022-12-29T14:26:45;27.25;;;13.90;;
64615;SDS011;51027;42.162;24.754;2022-12-29T14:31:49;38.38;;;19.58;;
64615;SDS011;51027;42.162;24.754;2022-12-29T14:34:15;35.25;;;18.08;;
64615;SDS011;51027;42.162;24.754;2022-12-29T14:39:41;31.77;;;17.47;;
64615;SDS011;51027;42.162;24.754;2022-12-29T14:44:49;43.45;;;21.63;;
64615;SDS011;51027;42.162;24.754;2022-12-29T14:47:28;40.95;;;23.05;;
64615;SDS011;51027;42.162;24.754;2022-12-29T14:52:29;37.10;;;19.70;;
64615;SDS011;51027;42.162;24.754;2022-12-29T14:54:57;39.03;;;21.30;;
64615;SDS011;51027;42.162;24.754;2022-12-29T14:57:44;36.45;;;17.63;;
64615;SDS011;51027;42.162;24.754;2022-12-29T15:00:21;27.70;;;14.32;;
64615;SDS011;51027;42.162;24.754;2022-12-29T15:03:02;35.88;;;16.85;;
64615;SDS011;51027;42.162;24.754;2022-12-29T15:05:32;29.88;;;14.25;;
64615;SDS011;51027;42.162;24.754;2022-12-29T15:08:06;30.38;;;15.35;;
64615;SDS011;51027;42.162;24.754;2022-12-29T15:10:37;30.20;;;14.98;;
64615;SDS011;51027;42.162;24.754;2022-12-29T15:13:13;30.98;;;14.70;;
64615;SDS011;51027;42.162;24.754;2022-12-29T15:15:42;32.33;;;14.93;;
64615;SDS011;51027;42.162;24.754;2022-12-29T15:18:29;28.85;;;13.55;;
64615;SDS011;51027;42.162;24.754;2022-12-29T15:21:04;28.98;;;13.43;;
64615;SDS011;51027;42.162;24.754;2022-12-29T15:23:31;30.88;;;12.75;;
64615;SDS011;51027;42.162;24.754;2022-12-29T15:26:03;34.33;;;13.43;;
64615;SDS011;51027;42.162;24.754;2022-12-29T15:28:38;26.25;;;13.05;;
64615;SDS011;51027;42.162;24.754;2022-12-29T15:31:09;31.73;;;15.32;;
64615;SDS011;51027;42.162;24.754;2022-12-29T15:33:47;32.28;;;16.75;;
64615;SDS011;51027;42.162;24.754;2022-12-29T15:36:18;33.53;;;18.40;;
64615;SDS011;51027;42.162;24.754;2022-12-29T15:38:51;33.22;;;19.15;;
64615;SDS011;51027;42.162;24.754;2022-12-29T15:46:48;39.50;;;21.20;;
64615;SDS011;51027;42.162;24.754;2022-12-29T15:49:17;44.72;;;22.17;;
64615;SDS011;51027;42.162;24.754;2022-12-29T15:51:43;111.15;;;59.22;;
64615;SDS011;51027;42.162;24.754;2022-12-29T15:54:14;114.22;;;62.28;;
64615;SDS011;51027;42.162;24.754;2022-12-29T15:56:42;45.67;;;25.17;;
64615;SDS011;51027;42.162;24.754;2022-12-29T15:59:22;39.40;;;19.33;;
64615;SDS011;51027;42.162;24.754;2022-12-29T16:04:13;35.92;;;19.13;;
64615;SDS011;51027;42.162;24.754;2022-12-29T16:06:44;36.83;;;17.77;;
64615;SDS011;51027;42.162;24.754;2022-12-29T16:09:19;37.17;;;19.77;;
64615;SDS011;51027;42.162;24.754;2022-12-29T16:11:59;39.78;;;19.63;;
64615;SDS011;51027;42.162;24.754;2022-12-29T16:14:34;40.47;;;18.95;;
64615;SDS011;51027;42.162;24.754;2022-12-29T16:17:05;46.83;;;22.80;;
64615;SDS011;51027;42.162;24.754;2022-12-29T16:24:29;51.65;;;20.95;;
64615;SDS011;51027;42.162;24.754;2022-12-29T16:27:10;43.45;;;24.48;;
64615;SDS011;51027;42.162;24.754;2022-12-29T16:29:48;44.88;;;23.55;;
64615;SDS011;51027;42.162;24.754;2022-12-29T16:32:44;49.75;;;25.65;;
64615;SDS011;51027;42.162;24.754;2022-12-29T16:35:12;61.88;;;33.17;;
64615;SDS011;51027;42.162;24.754;2022-12-29T16:37:46;88.90;;;41.75;;
64615;SDS011;51027;42.162;24.754;2022-12-29T16:42:48;63.97;;;32.95;;
64615;SDS011;51027;42.162;24.754;2022-12-29T16:50:17;45.83;;;25.92;;
64615;SDS011;51027;42.162;24.754;2022-12-29T16:52:48;53.95;;;27.70;;
64615;SDS011;51027;42.162;24.754;2022-12-29T16:55:15;55.25;;;28.38;;
64615;SDS011;51027;42.162;24.754;2022-12-29T16:57:42;50.42;;;27.70;;
64615;SDS011;51027;42.162;24.754;2022-12-29T17:00:23;50.47;;;28.05;;
64615;SDS011;51027;42.162;24.754;2022-12-29T17:02:50;56.85;;;29.80;;
64615;SDS011;51027;42.162;24.754;2022-12-29T17:05:19;78.53;;;38.67;;
64615;SDS011;51027;42.162;24.754;2022-12-29T17:07:45;122.68;;;55.17;;
64615;SDS011;51027;42.162;24.754;2022-12-29T17:10:11;92.60;;;49.20;;
64615;SDS011;51027;42.162;24.754;2022-12-29T17:12:37;133.05;;;65.90;;
64615;SDS011;51027;42.162;24.754;2022-12-29T17:15:21;86.55;;;41.95;;
64615;SDS011;51027;42.162;24.754;2022-12-29T17:17:51;75.80;;;40.85;;
64615;SDS011;51027;42.162;24.754;2022-12-29T17:20:27;75.63;;;40.95;;
64615;SDS011;51027;42.162;24.754;2022-12-29T17:22:53;88.70;;;46.53;;